createdAt,value
2022-11-08T00:00:00.861Z,100109.52
2022-11-08T00:02:28.240Z,100106.19
2022-11-08T00:04:55.445Z,100100.31
2022-11-08T00:07:41.722Z,100103.23
2022-11-08T00:10:29.137Z,100106.52
2022-11-08T00:13:14.971Z,100104.86
2022-11-08T00:15:42.131Z,100111.64
2022-11-08T00:18:09.358Z,100113.99
2022-11-08T00:20:36.507Z,100116.52
2022-11-08T00:23:38.279Z,100123.21
2022-11-08T00:26:18.403Z,100122.69
2022-11-08T00:28:45.602Z,100123.42
2022-11-08T00:31:12.738Z,100122.25
2022-11-08T00:33:39.906Z,100123.27
2022-11-08T00:36:07.349Z,100123.02
2022-11-08T00:38:34.765Z,100121.99
2022-11-08T00:41:01.835Z,100122.19
2022-11-08T00:43:29.032Z,100126.16
2022-11-08T00:45:56.043Z,100125.08
2022-11-08T00:48:23.271Z,100124.25
2022-11-08T00:50:50.618Z,100122.35
2022-11-08T00:53:17.905Z,100118.69
2022-11-08T00:55:45.516Z,100119.30
2022-11-08T00:58:12.784Z,100122.05
2022-11-08T01:00:39.994Z,100115.53
2022-11-08T01:03:19.228Z,100113.13
2022-11-08T01:05:50.880Z,100112.29
2022-11-08T01:08:19.756Z,100108.02
2022-11-08T01:10:50.811Z,100104.34
2022-11-08T01:13:19.194Z,100106.86
2022-11-08T01:15:47.079Z,100105.19
2022-11-08T01:18:16.987Z,100108.72
2022-11-08T01:20:45.950Z,100110.01
2022-11-08T01:23:13.825Z,100112.23
2022-11-08T01:25:43.640Z,100111.44
2022-11-08T01:28:12.200Z,100118.51
2022-11-08T01:30:40.956Z,100118.63
2022-11-08T01:33:08.304Z,100115.52
2022-11-08T01:35:36.306Z,100116.10
2022-11-08T01:38:05.462Z,100114.96
2022-11-08T01:40:33.319Z,100119.20
2022-11-08T01:43:00.772Z,100115.73
2022-11-08T01:46:02.614Z,100116.45
2022-11-08T01:48:29.931Z,100113.48
2022-11-08T01:50:59.914Z,100113.43
2022-11-08T01:53:29.295Z,100108.79
2022-11-08T01:55:56.796Z,100104.02
2022-11-08T01:58:30.738Z,100102.41
2022-11-08T02:01:00.066Z,100100.69
2022-11-08T02:03:29.335Z,100101.02
2022-11-08T02:05:57.000Z,100102.65
2022-11-08T02:08:44.896Z,100104.81
2022-11-08T02:11:15.439Z,100106.72
2022-11-08T02:13:42.745Z,100103.21
2022-11-08T02:16:14.539Z,100102.81
2022-11-08T02:18:44.325Z,100104.69
2022-11-08T02:21:35.709Z,100106.70
2022-11-08T02:24:11.922Z,100115.06
2022-11-08T02:26:39.834Z,100114.86
2022-11-08T02:29:29.726Z,100115.86
2022-11-08T02:31:58.028Z,100111.58
2022-11-08T02:34:30.127Z,100113.60
2022-11-08T02:36:57.404Z,100111.14
2022-11-08T02:39:24.551Z,100107.46
2022-11-08T02:41:52.052Z,100101.89
2022-11-08T02:44:19.179Z,100098.23
2022-11-08T02:46:46.275Z,100092.77
2022-11-08T02:49:13.622Z,100089.34
2022-11-08T02:51:40.751Z,100090.04
2022-11-08T02:54:07.948Z,100092.58
2022-11-08T02:56:35.084Z,100094.02
2022-11-08T02:59:02.226Z,100094.43
2022-11-08T03:01:29.545Z,100095.48
2022-11-08T03:03:56.797Z,100094.77
2022-11-08T03:06:23.990Z,100097.84
2022-11-08T03:08:51.147Z,100098.81
2022-11-08T03:11:18.218Z,100099.52
2022-11-08T03:13:45.293Z,100097.64
2022-11-08T03:16:12.401Z,100098.09
2022-11-08T03:18:39.533Z,100094.02
2022-11-08T03:21:06.644Z,100098.52
2022-11-08T03:23:33.817Z,100101.67
2022-11-08T03:26:02.871Z,100099.89
2022-11-08T03:28:30.424Z,100097.91
2022-11-08T03:30:57.512Z,100103.36
2022-11-08T03:33:24.917Z,100097.73
2022-11-08T03:35:52.747Z,100093.43
2022-11-08T03:38:20.360Z,100094.65
2022-11-08T03:40:47.927Z,100099.32
2022-11-08T03:43:15.359Z,100102.77
2022-11-08T03:45:42.501Z,100105.33
2022-11-08T03:48:09.625Z,100110.70
2022-11-08T03:50:36.842Z,100113.79
2022-11-08T03:53:03.973Z,100106.35
2022-11-08T03:55:31.392Z,100106.60
2022-11-08T03:57:58.492Z,100100.88
2022-11-08T04:00:28.193Z,100098.20
2022-11-08T04:03:01.092Z,100098.23
2022-11-08T04:05:28.213Z,100091.79
2022-11-08T04:07:55.301Z,100087.47
2022-11-08T04:10:22.494Z,100096.66
2022-11-08T04:13:08.216Z,100094.86
2022-11-08T04:15:35.341Z,100086.73
2022-11-08T04:18:21.920Z,100091.17
2022-11-08T04:21:08.329Z,100093.19
2022-11-08T04:23:36.392Z,100094.77
2022-11-08T04:26:07.884Z,100100.92
2022-11-08T04:28:37.176Z,100100.70
2022-11-08T04:31:09.417Z,100104.18
2022-11-08T04:33:36.556Z,100100.39
2022-11-08T04:36:07.740Z,100098.50
2022-11-08T04:38:35.450Z,100103.34
2022-11-08T04:41:05.520Z,100102.89
2022-11-08T04:43:33.104Z,100107.45
2022-11-08T04:46:09.411Z,100110.97
2022-11-08T04:48:37.216Z,100112.44
2022-11-08T04:51:06.265Z,100113.64
2022-11-08T04:53:34.024Z,100117.89
2022-11-08T04:56:09.488Z,100119.45
2022-11-08T04:58:39.696Z,100118.52
2022-11-08T05:01:08.598Z,100118.02
2022-11-08T05:03:35.899Z,100120.43
2022-11-08T05:06:07.706Z,100120.57
2022-11-08T05:08:34.924Z,100121.37
2022-11-08T05:11:09.085Z,100117.63
2022-11-08T05:13:36.760Z,100117.61
2022-11-08T05:16:08.580Z,100114.09
2022-11-08T05:18:35.743Z,100112.56
2022-11-08T05:21:22.407Z,100115.32
2022-11-08T05:23:50.769Z,100110.59
2022-11-08T05:26:19.905Z,100110.56
2022-11-08T05:28:47.614Z,100114.42
2022-11-08T05:31:15.825Z,100116.52
2022-11-08T05:33:43.458Z,100115.95
2022-11-08T05:36:14.081Z,100117.95
2022-11-08T05:38:42.356Z,100115.92
2022-11-08T05:41:15.833Z,100118.23
2022-11-08T05:43:45.104Z,100119.39
2022-11-08T05:46:12.882Z,100122.29
2022-11-08T05:48:41.785Z,100128.52
2022-11-08T05:51:09.430Z,100127.25
2022-11-08T05:53:36.546Z,100128.36
2022-11-08T05:56:04.955Z,100130.40
2022-11-08T05:58:34.558Z,100134.14
2022-11-08T06:01:06.045Z,100139.28
2022-11-08T06:03:34.074Z,100141.81
2022-11-08T06:06:03.335Z,100141.58
2022-11-08T06:08:30.811Z,100145.13
2022-11-08T06:11:05.532Z,100145.57
2022-11-08T06:13:33.602Z,100148.70
2022-11-08T06:16:07.134Z,100148.41
2022-11-08T06:18:35.124Z,100150.45
2022-11-08T06:21:04.071Z,100154.75
2022-11-08T06:23:32.058Z,100156.35
2022-11-08T06:26:00.005Z,100154.67
2022-11-08T06:28:27.592Z,100157.77
2022-11-08T06:30:54.780Z,100162.23
2022-11-08T06:33:22.305Z,100163.30
2022-11-08T06:35:49.504Z,100169.73
2022-11-08T06:38:16.700Z,100166.46
2022-11-08T06:40:45.027Z,100166.93
2022-11-08T06:43:19.057Z,100166.95
2022-11-08T06:45:46.779Z,100168.90
2022-11-08T06:48:14.217Z,100175.27
2022-11-08T06:50:42.090Z,100172.77
2022-11-08T06:53:12.526Z,100178.02
2022-11-08T06:55:39.657Z,100180.88
2022-11-08T06:58:06.915Z,100181.17
2022-11-08T07:00:34.220Z,100173.90
2022-11-08T07:03:03.668Z,100175.25
2022-11-08T07:05:33.071Z,100177.73
2022-11-08T07:08:01.129Z,100174.37
2022-11-08T07:10:30.702Z,100173.56
2022-11-08T07:13:03.878Z,100168.81
2022-11-08T07:15:32.224Z,100166.07
2022-11-08T07:18:05.414Z,100165.03
2022-11-08T07:20:32.978Z,100165.79
2022-11-08T07:23:00.149Z,100170.72
2022-11-08T07:25:28.963Z,100177.20
2022-11-08T07:27:57.805Z,100174.80
2022-11-08T07:30:25.643Z,100167.73
2022-11-08T07:32:52.841Z,100167.84
2022-11-08T07:35:20.030Z,100169.15
2022-11-08T07:37:47.261Z,100173.81
2022-11-08T07:40:14.948Z,100175.69
2022-11-08T07:43:10.047Z,100172.66
2022-11-08T07:45:30.240Z,100179.81
2022-11-08T07:48:06.665Z,100178.54
2022-11-08T07:50:36.916Z,100172.99
2022-11-08T07:53:04.007Z,100177.83
2022-11-08T07:55:31.177Z,100179.80
2022-11-08T07:58:02.195Z,100183.11
2022-11-08T08:00:30.781Z,100185.23
2022-11-08T08:03:02.560Z,100186.08
2022-11-08T08:05:39.359Z,100182.98
2022-11-08T08:08:07.038Z,100184.63
2022-11-08T08:10:34.891Z,100185.63
2022-11-08T08:13:02.482Z,100189.84
2022-11-08T08:15:29.598Z,100187.63
2022-11-08T08:18:00.358Z,100191.55
2022-11-08T08:20:27.754Z,100188.33
2022-11-08T08:22:54.931Z,100185.27
2022-11-08T08:25:22.112Z,100186.17
2022-11-08T08:27:51.008Z,100171.82
2022-11-08T08:30:18.603Z,100168.73
2022-11-08T08:32:53.554Z,100163.79
2022-11-08T08:35:24.993Z,100161.20
2022-11-08T08:37:52.117Z,100167.48
2022-11-08T08:40:19.205Z,100160.02
2022-11-08T08:42:46.277Z,100157.61
2022-11-08T08:45:15.144Z,100157.16
2022-11-08T08:47:42.557Z,100155.01
2022-11-08T08:50:10.187Z,100154.87
2022-11-08T08:52:37.397Z,100156.86
2022-11-08T08:55:04.879Z,100156.86
2022-11-08T08:57:32.302Z,100159.43
2022-11-08T09:02:46.763Z,100165.30
2022-11-08T09:05:14.305Z,100166.37
2022-11-08T09:07:42.011Z,100165.86
2022-11-08T09:10:10.487Z,100166.64
2022-11-08T09:12:38.451Z,100168.46
2022-11-08T09:15:06.572Z,100170.30
2022-11-08T09:17:33.862Z,100168.52
2022-11-08T09:20:01.062Z,100169.16
2022-11-08T09:22:28.008Z,100164.83
2022-11-08T09:24:55.150Z,100165.23
2022-11-08T09:27:22.305Z,100170.29
2022-11-08T09:29:49.397Z,100168.94
2022-11-08T09:32:21.666Z,100172.41
2022-11-08T09:35:00.461Z,100178.46
2022-11-08T09:37:29.161Z,100181.20
2022-11-08T09:39:56.496Z,100185.73
2022-11-08T09:42:49.572Z,100185.38
2022-11-08T09:45:21.138Z,100185.95
2022-11-08T09:48:05.350Z,100183.14
2022-11-08T09:50:42.025Z,100180.09
2022-11-08T09:53:24.669Z,100177.58
2022-11-08T09:56:01.831Z,100177.03
2022-11-08T09:58:35.610Z,100176.88
2022-11-08T10:01:03.832Z,100180.48
2022-11-08T10:03:31.334Z,100176.60
2022-11-08T10:06:29.395Z,100180.02
2022-11-08T10:09:16.532Z,100177.60
2022-11-08T10:11:46.706Z,100177.87
2022-11-08T10:14:44.367Z,100176.31
2022-11-08T10:17:27.131Z,100172.92
2022-11-08T10:20:13.857Z,100169.84
2022-11-08T10:23:24.131Z,100162.91
2022-11-08T10:26:06.037Z,100162.95
2022-11-08T10:28:51.915Z,100168.05
2022-11-08T10:31:20.838Z,100166.51
2022-11-08T10:33:56.793Z,100162.98
2022-11-08T10:36:42.543Z,100168.75
2022-11-08T10:39:09.602Z,100157.87
2022-11-08T10:41:58.499Z,100155.49
2022-11-08T10:44:27.487Z,100144.73
2022-11-08T10:46:58.977Z,100145.15
2022-11-08T10:49:27.629Z,100148.45
2022-11-08T10:51:57.336Z,100148.84
2022-11-08T10:54:46.081Z,100139.55
2022-11-08T10:57:38.181Z,100134.90
2022-11-08T11:00:20.434Z,100136.39
2022-11-08T11:03:06.198Z,100136.80
2022-11-08T11:05:37.003Z,100135.83
2022-11-08T11:08:04.138Z,100137.33
2022-11-08T11:10:34.422Z,100137.59
2022-11-08T11:13:06.802Z,100132.15
2022-11-08T11:15:46.619Z,100127.52
2022-11-08T11:18:32.229Z,100129.55
2022-11-08T11:21:24.160Z,100131.27
2022-11-08T11:23:58.645Z,100129.69
2022-11-08T11:26:34.658Z,100125.34
2022-11-08T11:29:07.754Z,100119.80
2022-11-08T11:31:40.640Z,100113.94
2022-11-08T11:34:17.045Z,100109.34
2022-11-08T11:36:48.357Z,100110.17
2022-11-08T11:39:30.789Z,100110.59
2022-11-08T11:42:39.030Z,100114.59
2022-11-08T11:45:23.142Z,100118.08
2022-11-08T11:47:58.545Z,100116.56
2022-11-08T11:50:40.665Z,100118.81
2022-11-08T11:53:17.095Z,100113.75
2022-11-08T11:56:05.926Z,100115.04
2022-11-08T11:58:45.064Z,100111.13
2022-11-08T12:01:18.681Z,100114.88
2022-11-08T12:04:23.026Z,100106.65
2022-11-08T12:07:10.875Z,100108.05
2022-11-08T12:09:38.069Z,100105.23
2022-11-08T12:12:27.221Z,100099.31
2022-11-08T12:15:12.429Z,100097.92
2022-11-08T12:18:01.226Z,100094.73
2022-11-08T12:20:58.429Z,100095.48
2022-11-08T12:23:35.581Z,100097.55
2022-11-08T12:26:38.030Z,100098.39
2022-11-08T12:29:23.627Z,100091.02
2022-11-08T12:32:09.593Z,100089.73
2022-11-08T12:34:46.213Z,100090.48
2022-11-08T12:37:41.147Z,100095.16
2022-11-08T12:40:20.879Z,100092.23
2022-11-08T12:43:08.133Z,100089.35
2022-11-08T12:45:35.233Z,100085.97
2022-11-08T12:48:14.419Z,100089.17
2022-11-08T12:51:03.594Z,100090.04
2022-11-08T12:53:37.132Z,100084.90
2022-11-08T12:56:11.315Z,100083.77
2022-11-08T12:58:49.491Z,100086.80
2022-11-08T13:01:19.798Z,100089.72
2022-11-08T13:04:19.000Z,100094.56
2022-11-08T13:06:54.377Z,100097.19
2022-11-08T13:09:40.405Z,100098.30
2022-11-08T13:12:10.298Z,100098.77
2022-11-08T13:14:41.249Z,100103.51
2022-11-08T13:17:18.825Z,100105.73
2022-11-08T13:19:49.608Z,100103.94
2022-11-08T13:22:29.173Z,100103.95
2022-11-08T13:24:57.916Z,100100.44
2022-11-08T13:27:37.471Z,100102.50
2022-11-08T13:30:25.452Z,100102.52
2022-11-08T13:33:07.317Z,100103.95
2022-11-08T13:35:43.733Z,100105.35
2022-11-08T13:38:35.794Z,100106.39
2022-11-08T13:41:11.942Z,100104.12
2022-11-08T13:43:39.501Z,100103.86
2022-11-08T13:46:28.111Z,100102.15
2022-11-08T13:48:58.471Z,100099.80
2022-11-08T13:51:31.393Z,100100.21
2022-11-08T13:53:58.516Z,100096.16
2022-11-08T13:56:42.535Z,100094.98
2022-11-08T13:59:35.949Z,100098.77
2022-11-08T14:02:21.711Z,100092.39
2022-11-08T14:04:49.086Z,100089.70
2022-11-08T14:07:48.683Z,100089.42
2022-11-08T14:10:38.906Z,100086.70
2022-11-08T14:13:30.209Z,100091.96
2022-11-08T14:16:02.267Z,100089.52
2022-11-08T14:18:31.805Z,100090.00
2022-11-08T14:20:59.945Z,100091.48
2022-11-08T14:23:38.047Z,100088.82
2022-11-08T14:26:12.421Z,100089.92
2022-11-08T14:28:46.655Z,100090.98
2022-11-08T14:31:28.161Z,100093.46
2022-11-08T14:33:56.220Z,100093.40
2022-11-08T14:36:25.140Z,100088.78
2022-11-08T14:38:59.072Z,100088.60
2022-11-08T14:41:28.983Z,100090.14
2022-11-08T14:43:58.678Z,100087.87
2022-11-08T14:46:32.793Z,100088.63
2022-11-08T14:49:14.061Z,100088.42
2022-11-08T14:51:42.104Z,100087.97
2022-11-08T14:54:22.015Z,100090.58
2022-11-08T14:56:50.505Z,100092.05
2022-11-08T14:59:18.542Z,100093.16
2022-11-08T15:01:48.865Z,100093.77
2022-11-08T15:04:20.461Z,100094.99
2022-11-08T15:06:53.874Z,100091.27
2022-11-08T15:09:26.347Z,100093.16
2022-11-08T15:11:56.818Z,100090.80
2022-11-08T15:14:27.888Z,100092.00
2022-11-08T15:17:02.561Z,100090.11
2022-11-08T15:19:41.251Z,100087.77
2022-11-08T15:22:27.011Z,100083.27
2022-11-08T15:25:15.821Z,100082.33
2022-11-08T15:27:56.966Z,100082.14
2022-11-08T15:30:30.271Z,100080.26
2022-11-08T15:32:57.529Z,100076.64
2022-11-08T15:35:32.459Z,100074.94
2022-11-08T15:38:04.385Z,100074.61
2022-11-08T15:40:33.986Z,100069.50
2022-11-08T15:43:01.295Z,100073.84
2022-11-08T15:45:33.306Z,100072.43
2022-11-08T15:48:11.919Z,100072.46
2022-11-08T15:50:39.257Z,100071.63
2022-11-08T15:53:06.608Z,100071.54
2022-11-08T15:55:39.473Z,100073.29
2022-11-08T15:58:16.178Z,100072.63
2022-11-08T16:00:48.662Z,100075.48
2022-11-08T16:03:15.873Z,100077.14
2022-11-08T16:05:43.109Z,100073.84
2022-11-08T16:08:10.306Z,100074.38
2022-11-08T16:10:40.903Z,100076.23
2022-11-08T16:13:31.300Z,100074.50
2022-11-08T16:15:59.205Z,100077.71
2022-11-08T16:18:26.653Z,100080.98
2022-11-08T16:20:53.794Z,100084.76
2022-11-08T16:23:20.913Z,100083.95
2022-11-08T16:25:50.474Z,100085.98
2022-11-08T16:28:17.610Z,100088.05
2022-11-08T16:30:47.078Z,100091.13
2022-11-08T16:33:25.309Z,100097.84
2022-11-08T16:35:55.372Z,100095.79
2022-11-08T16:38:33.739Z,100101.69
2022-11-08T16:41:01.433Z,100103.83
2022-11-08T16:43:29.193Z,100103.34
2022-11-08T16:46:06.381Z,100101.32
2022-11-08T16:48:36.708Z,100100.00
2022-11-08T16:51:07.151Z,100105.55
2022-11-08T16:53:35.733Z,100105.05
2022-11-08T16:56:02.912Z,100104.02
2022-11-08T16:58:30.065Z,100101.90
2022-11-08T17:00:57.750Z,100105.02
2022-11-08T17:03:29.745Z,100105.70
2022-11-08T17:05:57.827Z,100105.72
2022-11-08T17:08:25.187Z,100101.66
2022-11-08T17:10:56.013Z,100105.53
2022-11-08T17:13:23.218Z,100103.78
2022-11-08T17:15:51.227Z,100101.67
2022-11-08T17:18:21.160Z,100100.60
2022-11-08T17:20:49.074Z,100097.55
2022-11-08T17:23:16.767Z,100097.14
2022-11-08T17:25:44.674Z,100095.80
2022-11-08T17:28:12.700Z,100095.77
2022-11-08T17:30:44.733Z,100097.17
2022-11-08T17:33:13.392Z,100091.44
2022-11-08T17:35:43.921Z,100095.79
2022-11-08T17:38:12.671Z,100092.54
2022-11-08T17:40:42.323Z,100089.94
2022-11-08T17:43:09.719Z,100090.11
2022-11-08T17:45:36.905Z,100084.70
2022-11-08T17:48:04.140Z,100083.01
2022-11-08T17:50:31.189Z,100082.83
2022-11-08T17:52:58.229Z,100081.89
2022-11-08T17:55:25.367Z,100085.45
2022-11-08T17:57:52.529Z,100082.96
2022-11-08T18:00:19.763Z,100086.38
2022-11-08T18:02:47.009Z,100090.92
2022-11-08T18:05:14.194Z,100091.56
2022-11-08T18:07:41.326Z,100093.14
2022-11-08T18:10:09.756Z,100092.02
2022-11-08T18:12:37.078Z,100092.36
2022-11-08T18:15:05.367Z,100093.59
2022-11-08T18:17:32.361Z,100094.34
2022-11-08T18:19:59.512Z,100096.67
2022-11-08T18:22:26.908Z,100099.84
2022-11-08T18:24:54.086Z,100100.55
2022-11-08T18:27:21.448Z,100101.55
2022-11-08T18:29:48.613Z,100097.59
2022-11-08T18:32:16.099Z,100101.27
2022-11-08T18:34:43.308Z,100103.26
2022-11-08T18:37:10.437Z,100100.86
2022-11-08T18:39:37.660Z,100097.95
2022-11-08T18:42:05.044Z,100098.73
2022-11-08T18:44:32.149Z,100090.52
2022-11-08T18:46:59.969Z,100089.35
2022-11-08T18:49:28.525Z,100086.96
2022-11-08T18:51:56.870Z,100084.81
2022-11-08T18:54:26.916Z,100082.42
2022-11-08T18:56:54.090Z,100084.24
2022-11-08T18:59:21.505Z,100083.21
2022-11-08T19:01:48.681Z,100080.33
2022-11-08T19:04:15.901Z,100083.96
2022-11-08T19:06:43.270Z,100083.16
2022-11-08T19:09:10.536Z,100081.05
2022-11-08T19:11:37.834Z,100079.98
2022-11-08T19:14:05.118Z,100078.25
2022-11-08T19:16:32.472Z,100078.90
2022-11-08T19:18:59.980Z,100080.47
2022-11-08T19:21:28.539Z,100079.16
2022-11-08T19:23:59.666Z,100083.27
2022-11-08T19:26:28.813Z,100086.20
2022-11-08T19:28:57.362Z,100084.83
2022-11-08T19:31:25.639Z,100088.73
2022-11-08T19:33:54.166Z,100087.93
2022-11-08T19:36:26.721Z,100088.42
2022-11-08T19:38:55.940Z,100085.73
2022-11-08T19:41:25.486Z,100089.93
2022-11-08T19:43:53.102Z,100087.61
2022-11-08T19:46:23.934Z,100087.70
2022-11-08T19:48:52.562Z,100091.33
2022-11-08T19:51:26.555Z,100089.33
2022-11-08T19:54:02.100Z,100089.18
2022-11-08T19:56:57.852Z,100090.60
2022-11-08T19:59:18.317Z,100090.12
2022-11-08T20:01:47.135Z,100089.33
2022-11-08T20:04:18.810Z,100082.04
2022-11-08T20:06:46.785Z,100079.78
2022-11-08T20:09:14.689Z,100080.02
2022-11-08T20:11:42.820Z,100079.54
2022-11-08T20:14:13.109Z,100075.58
2022-11-08T20:16:43.165Z,100072.65
2022-11-08T20:19:16.511Z,100071.91
2022-11-08T20:21:46.441Z,100068.45
2022-11-08T20:24:14.712Z,100070.10
2022-11-08T20:26:42.570Z,100069.39
2022-11-08T20:29:10.126Z,100069.76
2022-11-08T20:31:37.503Z,100063.89
2022-11-08T20:34:07.542Z,100062.78
2022-11-08T20:36:37.572Z,100060.98
2022-11-08T20:39:07.721Z,100056.59
2022-11-08T20:41:37.876Z,100059.78
2022-11-08T20:44:06.541Z,100061.32
2022-11-08T20:46:34.910Z,100061.02
2022-11-08T20:49:02.520Z,100067.38
2022-11-08T20:51:31.181Z,100073.65
2022-11-08T20:54:00.261Z,100078.51
2022-11-08T20:56:29.105Z,100080.11
2022-11-08T20:58:56.624Z,100075.52
2022-11-08T21:01:27.301Z,100073.43
2022-11-08T21:03:55.315Z,100070.91
2022-11-08T21:06:24.455Z,100069.70
2022-11-08T21:09:03.249Z,100070.19
2022-11-08T21:11:37.992Z,100073.92
2022-11-08T21:14:05.680Z,100072.47
2022-11-08T21:16:47.375Z,100070.71
2022-11-08T21:19:20.708Z,100067.80
2022-11-08T21:21:47.939Z,100070.27
2022-11-08T21:24:15.099Z,100066.62
2022-11-08T21:26:42.225Z,100065.14
2022-11-08T21:29:09.446Z,100069.08
2022-11-08T21:31:36.426Z,100068.32
2022-11-08T21:34:03.511Z,100066.66
2022-11-08T21:36:30.518Z,100068.85
2022-11-08T21:38:57.860Z,100068.85
2022-11-08T21:41:25.049Z,100066.80
2022-11-08T21:43:52.200Z,100070.42
2022-11-08T21:46:24.990Z,100069.12
2022-11-08T21:48:57.171Z,100066.79
2022-11-08T21:51:24.895Z,100067.06
2022-11-08T21:53:55.271Z,100062.48
2022-11-08T21:56:25.237Z,100061.11
2022-11-08T21:58:53.084Z,100064.35
2022-11-08T22:01:24.135Z,100060.73
2022-11-08T22:03:52.598Z,100062.20
2022-11-08T22:06:21.595Z,100061.44
2022-11-08T22:08:49.137Z,100059.75
2022-11-08T22:11:16.335Z,100060.96
2022-11-08T22:13:43.476Z,100058.98
2022-11-08T22:16:10.641Z,100055.90
2022-11-08T22:21:43.271Z,100053.11
2022-11-08T22:24:20.595Z,100051.14
2022-11-08T22:26:49.326Z,100047.52
2022-11-08T22:29:17.182Z,100046.55
2022-11-08T22:31:45.896Z,100042.61
2022-11-08T22:34:13.322Z,100041.36
2022-11-08T22:36:45.413Z,100042.06
2022-11-08T22:39:18.559Z,100037.77
2022-11-08T22:41:47.895Z,100041.42
2022-11-08T22:44:15.890Z,100040.31
2022-11-08T22:46:47.896Z,100041.06
2022-11-08T22:49:15.931Z,100034.29
2022-11-08T22:51:43.644Z,100031.96
2022-11-08T22:54:10.952Z,100032.36
2022-11-08T22:56:38.415Z,100029.57
2022-11-08T22:59:05.931Z,100027.76
2022-11-08T23:01:34.114Z,100027.67
2022-11-08T23:04:01.359Z,100029.52
2022-11-08T23:06:28.616Z,100029.31
2022-11-08T23:08:55.900Z,100025.33
2022-11-08T23:11:41.597Z,100021.01
2022-11-08T23:14:33.769Z,100018.02
2022-11-08T23:17:04.335Z,100018.83
2022-11-08T23:19:50.979Z,100018.98
2022-11-08T23:22:37.132Z,100017.52
2022-11-08T23:25:04.786Z,100017.05
2022-11-08T23:27:50.561Z,100019.23
2022-11-08T23:30:37.502Z,100021.86
2022-11-08T23:33:06.996Z,100030.72
2022-11-08T23:35:34.476Z,100036.25
2022-11-08T23:38:02.071Z,100036.24
2022-11-08T23:40:48.178Z,100047.48
2022-11-08T23:43:38.145Z,100019.73
2022-11-08T23:46:09.911Z,99994.00
2022-11-08T23:48:37.904Z,100002.36
2022-11-08T23:51:06.374Z,100002.14
2022-11-08T23:53:34.891Z,100008.41
2022-11-08T23:56:02.193Z,100012.59
2022-11-08T23:58:29.572Z,100008.13
